Ridgewood, New York
Current Conditions -  °F | °C
As of 3:51 PM on Tuesday 25 Nov 2014 (Local Time) from KLGA Reporting Station
Overcast Overcast  
Wind Chill: 54°   Ceiling: 25000
Heat Index: 54°   Visibility: 10mi
Dew Point: 28°   Wind: 8mph
Humidity: 37%   Direction: 270°W
Pressure: 30"   Gusts: NA
Location:  40.7°N, 73.9°W
Report Text: KLGA 252051Z 27007KT 10SM SCT050 SCT150 OVC250 12/M02 A3000 RMK AO2 SLP159 T01221022 53005
Loading
Personal Weather Stations






























Interactive Weather Map New forecast layout! Learn more

10-Day Weather Forecast

Advertisements
Track Severe Weather on mobile